Time;durP1;ratioP1;P1;durP2;ratioP2;P2;SDS_P1;SDS_P2;PMS_P1;PMS_P2;Temp;Humidity;BMP_temperature;BMP_pressure;BME280_temperature;BME280_humidity;BME280_pressure;Samples;Min_cycle;Max_cycle;Signal;HPM_P1;HPM_P2
2023/08/08 00:01:30;;;;;;;3.70;2.83;;;14.40;1.00;;;;;;5008840;28;20210;-75
2023/08/08 00:03:55;;;;;;;6.90;3.07;;;14.40;1.00;;;;;;5006309;28;20186;-75
2023/08/08 00:06:20;;;;;;;4.73;2.60;;;14.40;1.00;;;;;;5007953;28;20209;-74
2023/08/08 00:08:46;;;;;;;3.07;2.50;;;14.50;1.00;;;;;;5008180;28;20549;-75
2023/08/08 00:11:11;;;;;;;3.63;2.50;;;14.40;1.00;;;;;;5007138;28;20225;-75
2023/08/08 00:13:37;;;;;;;5.53;2.83;;;14.40;1.00;;;;;;5011087;28;20189;-75
2023/08/08 00:16:03;;;;;;;5.27;3.00;;;14.50;1.00;;;;;;5011906;28;20187;-75
2023/08/08 00:18:28;;;;;;;5.50;2.83;;;14.50;1.00;;;;;;5011060;28;20249;-75
2023/08/08 00:20:54;;;;;;;4.30;2.63;;;14.60;1.00;;;;;;5010208;28;20209;-75
2023/08/08 00:23:19;;;;;;;5.90;2.53;;;14.60;1.00;;;;;;5010766;28;20699;-75
2023/08/08 00:25:49;;;;;;;8.20;2.47;;;14.60;1.00;;;;;;5009630;28;20183;-75
2023/08/08 00:28:15;;;;;;;4.93;2.60;;;14.60;1.00;;;;;;5009356;28;20645;-75
2023/08/08 00:30:41;;;;;;;6.80;3.20;;;14.50;1.00;;;;;;5010191;28;20429;-75
2023/08/08 00:33:06;;;;;;;3.50;2.30;;;14.50;1.00;;;;;;5010275;28;20510;-76
2023/08/08 00:35:32;;;;;;;7.27;2.60;;;14.60;1.00;;;;;;5010914;28;20179;-76
2023/08/08 00:37:57;;;;;;;6.80;2.90;;;14.60;1.00;;;;;;5010549;28;20240;-76
2023/08/08 00:40:23;;;;;;;3.43;2.30;;;14.70;1.00;;;;;;5007267;28;20530;-75
2023/08/08 00:42:48;;;;;;;5.30;2.57;;;14.70;1.00;;;;;;5008580;28;20187;-75
2023/08/08 00:45:14;;;;;;;3.00;2.23;;;14.70;1.00;;;;;;5010500;28;20178;-75
2023/08/08 00:47:39;;;;;;;9.20;2.50;;;14.70;1.00;;;;;;5010209;28;20252;-76
2023/08/08 00:50:05;;;;;;;5.60;2.37;;;14.70;1.00;;;;;;5008383;28;20473;-76
2023/08/08 00:52:31;;;;;;;3.20;2.17;;;14.70;1.00;;;;;;5005958;28;20697;-76
2023/08/08 00:54:57;;;;;;;3.47;2.30;;;14.70;1.00;;;;;;5026274;28;20433;-76
2023/08/08 00:57:23;;;;;;;3.83;2.10;;;14.70;1.00;;;;;;5012439;28;20179;-76
2023/08/08 00:59:49;;;;;;;6.53;2.40;;;14.70;1.00;;;;;;5012486;28;20923;-76
2023/08/08 01:02:15;;;;;;;4.03;2.13;;;14.70;1.00;;;;;;5010953;28;20221;-76
2023/08/08 01:04:40;;;;;;;3.10;2.20;;;14.70;1.00;;;;;;5006958;28;20274;-76
2023/08/08 01:07:22;;;;;;;4.80;2.60;;;14.70;1.00;;;;;;5008763;28;20206;-76
2023/08/08 01:09:56;;;;;;;3.00;2.20;;;14.70;1.00;;;;;;5011887;28;20179;-76
2023/08/08 01:12:24;;;;;;;6.37;2.63;;;14.70;1.00;;;;;;5010743;28;20465;-76
2023/08/08 01:14:50;;;;;;;6.67;2.37;;;14.60;1.00;;;;;;5009153;28;20491;-76
2023/08/08 01:17:16;;;;;;;4.47;2.43;;;14.60;1.00;;;;;;5005389;28;20519;-76
2023/08/08 01:19:42;;;;;;;5.77;2.43;;;14.50;1.00;;;;;;5011216;28;20182;-76
2023/08/08 01:22:19;;;;;;;3.50;2.27;;;14.40;1.00;;;;;;5006983;28;20449;-76
2023/08/08 01:24:45;;;;;;;4.00;2.30;;;14.30;1.00;;;;;;5010263;28;20437;-76
2023/08/08 01:27:11;;;;;;;6.20;2.23;;;14.30;1.00;;;;;;5006667;28;20832;-76
2023/08/08 01:29:37;;;;;;;3.97;2.70;;;14.30;1.00;;;;;;5010851;28;20183;-75
2023/08/08 01:32:03;;;;;;;5.17;2.60;;;14.90;1.00;;;;;;5009917;28;20253;-75
2023/08/08 01:34:29;;;;;;;3.67;2.47;;;14.20;1.00;;;;;;5010157;28;20433;-76
2023/08/08 01:37:09;;;;;;;9.50;2.07;;;14.20;1.00;;;;;;5008448;28;20661;-76
2023/08/08 01:39:35;;;;;;;3.30;2.20;;;14.20;1.00;;;;;;5009783;28;20615;-75
2023/08/08 01:42:01;;;;;;;3.30;2.20;;;14.30;1.00;;;;;;5007077;28;20457;-75
2023/08/08 01:44:29;;;;;;;5.23;2.40;;;14.20;1.00;;;;;;5009484;28;20457;-76
2023/08/08 01:46:54;;;;;;;5.20;2.30;;;14.20;1.00;;;;;;5009048;28;20523;-76
2023/08/08 01:49:20;;;;;;;5.37;2.70;;;14.20;1.00;;;;;;5008836;28;20463;-76
2023/08/08 01:51:46;;;;;;;6.10;2.30;;;14.30;1.00;;;;;;5005323;28;20616;-75
2023/08/08 01:54:12;;;;;;;6.97;2.70;;;14.30;1.00;;;;;;5007779;28;20711;-76
2023/08/08 01:56:37;;;;;;;6.23;3.03;;;14.20;1.00;;;;;;5009599;28;20418;-76
2023/08/08 01:59:03;;;;;;;5.83;2.60;;;14.20;1.00;;;;;;5009097;28;20174;-76
2023/08/08 02:01:28;;;;;;;3.03;2.30;;;14.10;1.00;;;;;;5003116;28;20210;-75
2023/08/08 02:03:54;;;;;;;8.80;3.10;;;14.10;1.00;;;;;;5006224;28;20175;-76
2023/08/08 02:06:19;;;;;;;3.70;2.60;;;14.00;1.00;;;;;;5007384;28;20194;-75
2023/08/08 02:08:45;;;;;;;4.53;2.60;;;13.90;1.00;;;;;;5000454;28;20176;-76
2023/08/08 02:11:11;;;;;;;6.43;2.37;;;13.90;1.00;;;;;;5007083;28;20242;-75
2023/08/08 02:13:36;;;;;;;11.00;2.83;;;13.90;1.00;;;;;;5005023;28;20224;-75
2023/08/08 02:16:02;;;;;;;5.40;3.10;;;13.80;1.00;;;;;;5003550;28;20186;-75
2023/08/08 02:18:27;;;;;;;6.93;2.90;;;13.80;1.00;;;;;;5009713;28;20221;-76
2023/08/08 02:20:53;;;;;;;4.13;2.60;;;13.70;1.00;;;;;;5003931;28;20314;-75
2023/08/08 02:23:18;;;;;;;3.10;2.47;;;13.60;1.00;;;;;;5001794;28;20170;-75
2023/08/08 02:25:44;;;;;;;5.60;2.60;;;13.60;1.00;;;;;;5000427;28;20699;-76
2023/08/08 02:28:09;;;;;;;3.33;2.30;;;13.60;1.00;;;;;;5004415;28;20175;-75
2023/08/08 02:30:35;;;;;;;5.00;2.93;;;13.50;1.00;;;;;;5003729;28;20190;-76
2023/08/08 02:33:01;;;;;;;4.50;2.60;;;13.50;1.00;;;;;;5009435;28;20179;-76
2023/08/08 02:35:26;;;;;;;3.03;2.50;;;13.50;1.00;;;;;;5002485;28;20178;-77
2023/08/08 02:37:52;;;;;;;6.20;2.93;;;13.40;1.00;;;;;;5007825;28;20198;-75
2023/08/08 02:40:17;;;;;;;5.50;2.70;;;13.40;1.00;;;;;;5006394;28;20521;-76
2023/08/08 02:42:43;;;;;;;4.93;2.53;;;13.40;1.00;;;;;;5007184;28;20572;-76
2023/08/08 02:45:09;;;;;;;2.67;2.37;;;13.40;1.00;;;;;;5008463;28;20216;-76
2023/08/08 02:47:34;;;;;;;4.00;2.47;;;13.40;1.00;;;;;;5008183;28;20205;-75
2023/08/08 02:50:00;;;;;;;2.87;2.33;;;13.40;1.00;;;;;;5012027;28;20175;-75
2023/08/08 02:52:25;;;;;;;3.93;2.73;;;13.40;1.00;;;;;;5009831;28;20199;-75
2023/08/08 02:54:50;;;;;;;4.60;2.57;;;13.40;1.00;;;;;;5011488;28;20203;-75
2023/08/08 02:57:16;;;;;;;4.00;2.83;;;13.40;1.00;;;;;;5009825;28;20214;-75
2023/08/08 02:59:42;;;;;;;4.63;2.43;;;13.40;1.00;;;;;;5008380;28;20270;-77
2023/08/08 03:02:07;;;;;;;4.20;2.60;;;13.40;1.00;;;;;;5005981;28;20218;-76
2023/08/08 03:04:33;;;;;;;11.60;2.90;;;13.40;1.00;;;;;;5008991;28;20372;-76
2023/08/08 03:06:58;;;;;;;5.77;3.03;;;13.40;1.00;;;;;;5002542;28;20257;-75
2023/08/08 03:09:24;;;;;;;7.30;3.00;;;13.40;1.00;;;;;;5007722;28;20179;-76
2023/08/08 03:11:49;;;;;;;4.77;2.90;;;13.40;1.00;;;;;;5008950;28;20228;-75
2023/08/08 03:14:15;;;;;;;7.80;3.07;;;13.50;1.00;;;;;;5009877;28;20170;-76
2023/08/08 03:16:40;;;;;;;4.70;3.00;;;13.50;1.00;;;;;;5008757;28;20649;-76
2023/08/08 03:19:06;;;;;;;5.80;3.03;;;13.40;1.00;;;;;;5010434;28;20187;-76
2023/08/08 03:21:31;;;;;;;5.03;3.60;;;13.40;1.00;;;;;;5008618;28;20435;-76
2023/08/08 03:23:57;;;;;;;4.63;3.50;;;13.40;1.00;;;;;;5003698;28;20173;-76
2023/08/08 03:26:23;;;;;;;6.70;3.70;;;13.40;1.00;;;;;;5008395;28;20209;-76
2023/08/08 03:28:50;;;;;;;5.93;3.10;;;13.40;1.00;;;;;;5009920;28;20178;-75
2023/08/08 03:31:17;;;;;;;6.53;3.23;;;13.30;1.00;;;;;;5008693;28;20468;-76
2023/08/08 03:33:43;;;;;;;6.70;3.27;;;13.30;1.00;;;;;;5009788;28;20417;-77
2023/08/08 03:36:08;;;;;;;5.03;3.10;;;13.30;1.00;;;;;;5008927;28;20450;-76
2023/08/08 03:38:35;;;;;;;4.90;2.40;;;13.30;1.00;;;;;;5010156;28;20648;-76
2023/08/08 03:41:00;;;;;;;3.63;2.60;;;13.30;1.00;;;;;;5009724;28;20281;-76
2023/08/08 03:43:26;;;;;;;6.40;2.67;;;13.30;1.00;;;;;;5008014;28;20652;-75
2023/08/08 03:45:52;;;;;;;7.43;3.30;;;13.30;1.00;;;;;;5009519;28;20185;-76
2023/08/08 03:48:17;;;;;;;4.10;2.90;;;13.30;1.00;;;;;;5013270;28;20267;-75
2023/08/08 03:50:43;;;;;;;4.33;2.73;;;13.40;1.00;;;;;;5008003;28;20635;-75
2023/08/08 03:53:08;;;;;;;4.37;3.30;;;13.40;1.00;;;;;;5002575;28;20182;-75
2023/08/08 03:55:34;;;;;;;3.73;3.03;;;13.40;1.00;;;;;;5012057;28;20210;-76
2023/08/08 03:57:59;;;;;;;3.40;2.70;;;13.50;1.00;;;;;;5013649;28;20167;-76
2023/08/08 04:00:25;;;;;;;5.50;2.87;;;13.50;1.00;;;;;;5011770;28;20213;-75
2023/08/08 04:02:50;;;;;;;3.57;2.73;;;13.50;1.00;;;;;;5013301;28;20706;-76
2023/08/08 04:05:16;;;;;;;3.77;2.70;;;13.50;1.00;;;;;;5013214;28;20185;-76
2023/08/08 04:07:41;;;;;;;4.83;2.90;;;13.40;1.00;;;;;;5010166;28;20197;-75
2023/08/08 04:10:07;;;;;;;5.17;3.40;;;13.40;1.00;;;;;;5008453;28;20584;-76
2023/08/08 04:12:33;;;;;;;4.73;3.10;;;13.40;1.00;;;;;;5010770;28;20576;-76
2023/08/08 04:14:58;;;;;;;3.00;2.70;;;13.30;1.00;;;;;;5007854;28;20214;-75
2023/08/08 04:17:24;;;;;;;3.40;2.80;;;13.40;1.00;;;;;;5011258;28;20182;-76
2023/08/08 04:19:50;;;;;;;4.93;2.73;;;13.40;1.00;;;;;;5011694;28;20607;-76
2023/08/08 04:22:16;;;;;;;3.70;2.70;;;13.30;1.00;;;;;;5011317;28;20195;-76
2023/08/08 04:24:42;;;;;;;3.20;2.50;;;13.20;1.00;;;;;;5008369;28;20512;-76
2023/08/08 04:27:07;;;;;;;3.50;3.07;;;13.20;1.00;;;;;;5002021;28;20207;-75
2023/08/08 04:29:33;;;;;;;5.27;3.03;;;13.20;1.00;;;;;;5005654;28;20653;-76
2023/08/08 04:31:59;;;;;;;5.90;3.30;;;13.20;1.00;;;;;;5007952;28;20241;-76
2023/08/08 04:34:24;;;;;;;3.60;3.20;;;13.10;1.00;;;;;;5009546;28;20508;-75
2023/08/08 04:36:50;;;;;;;4.20;3.10;;;13.10;1.00;;;;;;5010838;28;20199;-75
2023/08/08 04:39:15;;;;;;;10.03;3.47;;;13.10;1.00;;;;;;5006844;28;20313;-75
2023/08/08 04:41:41;;;;;;;5.20;3.00;;;13.20;1.00;;;;;;5010819;28;20190;-76
2023/08/08 04:44:06;;;;;;;5.43;3.50;;;13.10;1.00;;;;;;5011030;28;20692;-76
2023/08/08 04:46:32;;;;;;;6.43;3.53;;;13.50;1.00;;;;;;5004228;28;20217;-76
2023/08/08 04:48:57;;;;;;;4.87;3.43;;;13.10;1.00;;;;;;5009666;28;20219;-76
2023/08/08 04:51:23;;;;;;;5.00;3.50;;;13.20;1.00;;;;;;5007860;28;20217;-75
2023/08/08 04:53:48;;;;;;;10.30;3.97;;;13.20;1.00;;;;;;5008879;28;20354;-76
2023/08/08 04:56:14;;;;;;;5.00;3.70;;;13.20;1.00;;;;;;5008838;28;20175;-75
2023/08/08 04:58:40;;;;;;;5.73;3.40;;;13.20;1.00;;;;;;5009846;28;20178;-76
2023/08/08 05:01:05;;;;;;;9.93;3.50;;;13.30;1.00;;;;;;5009307;28;20204;-76
2023/08/08 05:03:31;;;;;;;4.53;3.13;;;13.30;1.00;;;;;;5010773;28;20240;-76
2023/08/08 05:05:58;;;;;;;7.10;3.40;;;13.40;1.00;;;;;;5010496;28;20664;-76
2023/08/08 05:08:24;;;;;;;3.37;2.80;;;13.50;1.00;;;;;;5006889;28;20261;-76
2023/08/08 05:10:49;;;;;;;7.93;3.80;;;13.60;1.00;;;;;;5008939;28;21031;-75
2023/08/08 05:13:15;;;;;;;7.10;3.07;;;13.60;1.00;;;;;;5009015;28;20259;-75
2023/08/08 05:15:40;;;;;;;4.10;3.20;;;13.60;1.00;;;;;;5006396;28;20254;-75
2023/08/08 05:18:06;;;;;;;8.50;3.63;;;13.60;1.00;;;;;;5011824;28;20254;-75
2023/08/08 05:20:32;;;;;;;6.80;3.30;;;13.70;1.00;;;;;;5009052;28;20185;-75
2023/08/08 05:22:57;;;;;;;8.40;3.00;;;13.70;1.00;;;;;;5010620;28;20206;-75
2023/08/08 05:25:23;;;;;;;4.30;3.10;;;14.30;1.00;;;;;;5004383;28;20171;-74
2023/08/08 05:27:49;;;;;;;3.43;2.77;;;13.80;1.00;;;;;;5009807;28;20453;-75
2023/08/08 05:30:15;;;;;;;3.60;3.00;;;13.80;1.00;;;;;;5006412;28;20179;-76
2023/08/08 05:32:41;;;;;;;6.30;3.50;;;13.90;1.00;;;;;;5009831;28;20457;-74
2023/08/08 05:35:07;;;;;;;4.50;3.40;;;13.90;1.00;;;;;;5009217;28;20663;-74
2023/08/08 05:37:33;;;;;;;5.97;3.30;;;14.00;1.00;;;;;;5011478;28;20208;-74
2023/08/08 05:39:59;;;;;;;5.40;3.30;;;14.10;1.00;;;;;;5011673;28;20414;-76
2023/08/08 05:42:24;;;;;;;5.40;3.17;;;14.30;1.00;;;;;;5011635;28;20293;-75
2023/08/08 05:44:50;;;;;;;7.78;3.30;;;14.30;1.00;;;;;;5009899;28;20431;-74
2023/08/08 05:47:15;;;;;;;4.30;3.13;;;14.50;1.00;;;;;;5011597;28;20205;-73
2023/08/08 05:49:42;;;;;;;4.40;3.10;;;14.60;1.00;;;;;;5009770;28;20545;-73
2023/08/08 05:52:08;;;;;;;4.53;2.83;;;14.70;1.00;;;;;;5009381;28;20193;-73
2023/08/08 05:54:34;;;;;;;4.97;2.77;;;14.80;1.00;;;;;;5023996;28;20417;-74
2023/08/08 05:56:59;;;;;;;7.73;3.30;;;14.90;1.00;;;;;;5009011;28;20433;-77
2023/08/08 05:59:25;;;;;;;7.10;2.80;;;15.00;1.00;;;;;;5003030;28;20178;-75
2023/08/08 06:01:51;;;;;;;4.83;2.80;;;15.10;1.00;;;;;;5010406;28;20272;-75
2023/08/08 06:04:17;;;;;;;5.20;2.70;;;15.10;1.00;;;;;;5003537;28;20652;-78
2023/08/08 06:06:43;;;;;;;5.20;2.77;;;15.20;1.00;;;;;;5004038;28;20449;-74
2023/08/08 06:09:09;;;;;;;5.73;2.70;;;15.30;1.00;;;;;;5007529;28;20175;-73
2023/08/08 06:11:34;;;;;;;3.97;2.80;;;15.50;1.00;;;;;;5009284;28;20472;-75
2023/08/08 06:14:00;;;;;;;5.13;2.70;;;15.40;1.00;;;;;;5011513;28;20587;-75
2023/08/08 06:16:26;;;;;;;6.17;2.60;;;15.50;1.00;;;;;;5011409;28;20269;-75
2023/08/08 06:18:52;;;;;;;7.90;2.70;;;15.70;1.00;;;;;;5008042;28;20267;-74
2023/08/08 06:21:18;;;;;;;4.23;2.40;;;16.10;1.00;;;;;;5008323;28;20210;-75
2023/08/08 06:23:43;;;;;;;3.70;2.53;;;15.90;1.00;;;;;;5011324;28;20558;-76
2023/08/08 06:26:09;;;;;;;4.40;2.20;;;16.00;1.00;;;;;;5010080;28;20579;-75
2023/08/08 06:28:35;;;;;;;3.53;2.27;;;16.00;1.00;;;;;;5010854;28;20170;-75
2023/08/08 06:31:01;;;;;;;2.97;2.30;;;16.10;1.00;;;;;;5009526;28;20756;-75
2023/08/08 06:33:26;;;;;;;5.50;2.50;;;16.20;1.00;;;;;;5011389;28;20198;-75
2023/08/08 06:35:52;;;;;;;2.80;2.33;;;16.30;1.00;;;;;;5009354;28;20456;-75
2023/08/08 06:38:17;;;;;;;2.87;2.20;;;16.30;1.00;;;;;;5009773;28;20236;-75
2023/08/08 06:40:43;;;;;;;7.20;2.67;;;16.50;1.00;;;;;;5009305;28;20175;-76
2023/08/08 06:43:08;;;;;;;2.87;2.17;;;16.40;1.00;;;;;;5004872;28;20174;-76
2023/08/08 06:45:34;;;;;;;5.50;2.30;;;16.60;1.00;;;;;;5002329;28;20190;-76
2023/08/08 06:48:00;;;;;;;3.07;2.10;;;16.70;1.00;;;;;;5008269;28;20202;-74
2023/08/08 06:50:26;;;;;;;3.50;2.33;;;16.70;1.00;;;;;;5006825;28;20257;-76
2023/08/08 06:52:51;;;;;;;4.87;2.53;;;16.80;1.00;;;;;;5010178;28;20548;-74
2023/08/08 06:55:17;;;;;;;3.40;2.07;;;16.80;1.00;;;;;;5014959;28;20178;-78
2023/08/08 06:57:42;;;;;;;9.60;2.80;;;17.00;1.00;;;;;;5008617;28;20218;-75
2023/08/08 07:00:11;;;;;;;5.60;2.40;;;17.10;1.00;;;;;;5010114;28;20178;-78
2023/08/08 07:02:37;;;;;;;4.43;2.70;;;17.20;1.00;;;;;;5008219;28;20287;-75
2023/08/08 07:05:03;;;;;;;2.70;2.40;;;17.40;1.00;;;;;;5008693;28;20873;-74
2023/08/08 07:07:30;;;;;;;6.57;2.47;;;17.50;1.00;;;;;;5009863;28;20202;-74
2023/08/08 07:09:56;;;;;;;4.03;2.50;;;17.50;1.00;;;;;;5009172;28;20443;-74
2023/08/08 07:12:21;;;;;;;6.77;4.00;;;17.60;1.00;;;;;;5010047;28;21018;-75
2023/08/08 07:14:47;;;;;;;3.40;2.40;;;17.80;1.00;;;;;;5008245;28;20198;-77
2023/08/08 07:17:12;;;;;;;5.60;2.77;;;17.80;1.00;;;;;;5009649;28;20209;-76
2023/08/08 07:19:38;;;;;;;4.33;2.80;;;18.00;1.00;;;;;;5009868;28;20182;-75
2023/08/08 07:22:03;;;;;;;4.67;2.53;;;18.20;1.00;;;;;;5013097;28;20190;-74
2023/08/08 07:24:29;;;;;;;7.93;2.47;;;18.30;1.00;;;;;;5013640;28;20179;-74
2023/08/08 07:26:56;;;;;;;5.50;2.57;;;18.40;1.00;;;;;;5011590;28;20260;-75
2023/08/08 07:29:21;;;;;;;3.30;2.20;;;18.60;1.00;;;;;;5012436;28;20847;-75
2023/08/08 07:31:47;;;;;;;5.13;2.50;;;18.70;1.00;;;;;;5015736;28;20441;-75
2023/08/08 07:34:12;;;;;;;6.57;2.20;;;18.80;1.00;;;;;;5012134;28;20178;-75
2023/08/08 07:36:38;;;;;;;5.33;2.53;;;18.90;1.00;;;;;;5011247;28;20186;-76
2023/08/08 07:39:03;;;;;;;4.70;2.33;;;19.10;1.00;;;;;;5008099;28;20178;-73
2023/08/08 07:41:30;;;;;;;4.93;2.47;;;19.30;1.00;;;;;;5013476;28;20202;-75
2023/08/08 07:43:56;;;;;;;5.20;2.10;;;19.00;1.00;;;;;;5012221;28;20175;-75
2023/08/08 07:46:22;;;;;;;3.30;2.20;;;19.20;1.00;;;;;;5011752;28;20449;-76
2023/08/08 07:48:47;;;;;;;4.13;2.40;;;19.40;1.00;;;;;;5012837;28;20573;-75
2023/08/08 07:51:13;;;;;;;6.50;2.30;;;19.70;1.00;;;;;;5013096;28;20477;-75
2023/08/08 07:53:38;;;;;;;6.33;2.13;;;20.00;1.00;;;;;;5012258;28;20178;-74
2023/08/08 07:56:04;;;;;;;7.20;2.20;;;20.30;1.00;;;;;;5013452;28;20193;-74
2023/08/08 07:58:32;;;;;;;5.63;2.30;;;20.70;1.00;;;;;;5012835;28;20676;-74
2023/08/08 08:01:01;;;;;;;7.23;2.60;;;20.60;1.00;;;;;;5011762;28;20527;-74
2023/08/08 08:03:29;;;;;;;3.50;2.10;;;20.80;1.00;;;;;;5011997;28;20413;-75
2023/08/08 08:05:56;;;;;;;5.50;2.00;;;20.80;1.00;;;;;;5010821;28;20429;-75
2023/08/08 08:08:21;;;;;;;3.10;1.90;;;20.90;1.00;;;;;;5013034;28;20433;-75
2023/08/08 08:10:48;;;;;;;3.77;2.00;;;20.90;1.00;;;;;;5012704;28;20931;-75
2023/08/08 08:13:14;;;;;;;3.77;1.87;;;20.90;1.00;;;;;;5013141;28;20723;-74
2023/08/08 08:15:40;;;;;;;3.20;1.90;;;21.10;1.00;;;;;;5012657;28;20447;-77
2023/08/08 08:18:05;;;;;;;3.50;2.00;;;21.10;1.00;;;;;;5012056;28;20521;-75
2023/08/08 08:20:31;;;;;;;4.93;2.00;;;21.20;1.00;;;;;;5010525;28;20187;-74
2023/08/08 08:22:56;;;;;;;6.27;2.03;;;21.30;1.00;;;;;;5010279;28;20248;-76
2023/08/08 08:25:22;;;;;;;3.37;2.00;;;21.30;1.00;;;;;;5010413;28;20740;-76
2023/08/08 08:27:47;;;;;;;4.40;1.90;;;21.20;1.00;;;;;;5011409;28;20202;-77
2023/08/08 08:30:13;;;;;;;5.93;2.20;;;21.60;1.00;;;;;;5011593;28;20189;-75
2023/08/08 08:32:42;;;;;;;4.00;2.03;;;22.40;1.00;;;;;;5016173;28;20613;-76
2023/08/08 08:35:08;;;;;;;4.40;2.07;;;23.40;1.00;;;;;;5013078;28;20550;-76
2023/08/08 08:37:34;;;;;;;7.70;2.00;;;24.30;1.00;;;;;;5009993;28;20499;-75
2023/08/08 08:40:00;;;;;;;5.00;2.10;;;24.60;1.00;;;;;;5009185;28;20524;-75
2023/08/08 08:42:27;;;;;;;5.07;2.10;;;24.50;1.00;;;;;;5008671;28;20201;-75
2023/08/08 08:44:58;;;;;;;4.73;2.37;;;24.10;1.00;;;;;;5007640;28;20182;-76
2023/08/08 08:47:25;;;;;;;4.50;2.37;;;24.10;1.00;;;;;;5009519;28;20469;-76
2023/08/08 08:49:52;;;;;;;4.50;2.30;;;24.70;1.00;;;;;;5010798;28;20431;-75
2023/08/08 08:52:18;;;;;;;5.33;2.07;;;24.60;1.00;;;;;;5010884;28;20958;-75
2023/08/08 08:54:44;;;;;;;5.43;2.10;;;24.50;1.00;;;;;;5010908;28;20429;-75
2023/08/08 08:57:09;;;;;;;4.40;2.33;;;24.80;1.00;;;;;;5008561;28;20261;-77
2023/08/08 08:59:35;;;;;;;5.93;2.20;;;25.80;1.00;;;;;;5009390;28;20207;-74
2023/08/08 09:02:01;;;;;;;5.10;2.10;;;26.50;1.00;;;;;;5010434;28;20626;-75
2023/08/08 09:04:29;;;;;;;3.60;1.90;;;26.10;1.00;;;;;;5012174;28;20178;-75
2023/08/08 09:06:55;;;;;;;6.93;2.30;;;25.70;1.00;;;;;;5011907;28;20457;-75
2023/08/08 09:09:22;;;;;;;5.00;1.97;;;25.90;1.00;;;;;;5011226;28;20464;-75
2023/08/08 09:11:49;;;;;;;5.17;1.90;;;26.50;1.00;;;;;;5009070;28;20583;-77
2023/08/08 09:14:19;;;;;;;6.40;2.00;;;26.90;1.00;;;;;;5009933;28;20966;-75
2023/08/08 09:16:46;;;;;;;3.93;1.93;;;27.00;1.00;;;;;;5009514;28;20437;-75
2023/08/08 09:19:13;;;;;;;3.80;1.80;;;27.20;1.00;;;;;;5005703;28;20536;-76
2023/08/08 09:21:38;;;;;;;3.20;1.70;;;27.30;1.00;;;;;;5009527;28;20217;-75
2023/08/08 09:24:04;;;;;;;4.73;1.90;;;28.40;1.00;;;;;;5009365;28;20265;-75
2023/08/08 09:26:30;;;;;;;4.47;1.87;;;28.70;1.00;;;;;;5008458;28;20248;-77
2023/08/08 09:28:56;;;;;;;6.70;2.20;;;28.60;1.00;;;;;;5006928;28;20185;-76
2023/08/08 09:31:24;;;;;;;5.00;1.95;;;28.60;1.00;;;;;;5005259;28;20329;-75
2023/08/08 09:33:51;;;;;;;3.80;1.85;;;28.40;1.00;;;;;;5006346;28;20186;-76
2023/08/08 09:36:16;;;;;;;3.33;1.73;;;28.10;1.00;;;;;;5007674;28;20667;-75
2023/08/08 09:38:42;;;;;;;5.80;2.23;;;28.20;1.00;;;;;;5003405;28;20252;-76
2023/08/08 09:41:08;;;;;;;4.03;1.90;;;28.00;1.00;;;;;;5007961;28;20194;-75
2023/08/08 09:43:34;;;;;;;4.40;1.97;;;28.00;1.00;;;;;;5009023;28;20591;-76
2023/08/08 09:46:00;;;;;;;4.77;1.60;;;28.10;1.00;;;;;;5005658;28;20660;-76
2023/08/08 09:48:31;;;;;;;2.73;1.73;;;28.20;1.00;;;;;;5004677;28;20711;-76
2023/08/08 09:50:59;;;;;;;5.07;1.95;;;28.90;1.00;;;;;;5002342;28;20229;-75
2023/08/08 09:53:27;;;;;;;6.20;2.05;;;30.30;1.00;;;;;;5005376;28;20174;-75
2023/08/08 09:55:55;;;;;;;2.90;1.70;;;30.80;1.00;;;;;;5005149;28;20185;-75
2023/08/08 09:58:21;;;;;;;3.17;1.80;;;30.40;1.00;;;;;;5008282;28;20212;-76
2023/08/08 10:00:49;;;;;;;3.70;1.80;;;28.70;1.00;;;;;;5008072;28;20213;-76
2023/08/08 10:03:16;;;;;;;3.50;1.90;;;28.60;1.00;;;;;;5008442;28;20184;-76
2023/08/08 10:05:43;;;;;;;3.80;1.80;;;28.00;1.00;;;;;;5009224;28;20186;-75
2023/08/08 10:08:09;;;;;;;2.90;1.63;;;28.20;1.00;;;;;;5005434;28;20357;-75
2023/08/08 10:10:35;;;;;;;3.30;1.80;;;28.90;1.00;;;;;;5008645;28;20185;-77
2023/08/08 10:13:01;;;;;;;4.45;1.80;;;28.90;1.00;;;;;;5006503;28;20202;-77
2023/08/08 10:15:27;;;;;;;4.22;2.10;;;29.40;1.00;;;;;;5007940;28;20657;-76
2023/08/08 10:17:57;;;;;;;2.90;1.70;;;29.90;1.00;;;;;;5009334;28;20268;-76
2023/08/08 10:20:25;;;;;;;4.18;1.88;;;29.40;1.00;;;;;;5008117;28;20636;-75
2023/08/08 10:22:54;;;;;;;3.97;2.00;;;29.00;1.00;;;;;;5009843;28;20677;-75
2023/08/08 10:25:25;;;;;;;3.27;1.80;;;27.40;1.00;;;;;;5008497;28;20174;-73
2023/08/08 10:28:03;;;;;;;8.43;2.00;;;27.20;1.00;;;;;;5003618;28;20267;-76
2023/08/08 10:30:29;;;;;;;4.40;2.13;;;28.10;1.00;;;;;;5020266;28;20178;-75
2023/08/08 10:32:57;;;;;;;3.73;2.03;;;29.50;1.00;;;;;;5008881;28;20696;-76
2023/08/08 10:35:28;;;;;;;4.33;1.90;;;30.10;1.00;;;;;;5006329;28;20717;-75
2023/08/08 10:37:54;;;;;;;3.97;1.93;;;29.70;1.00;;;;;;5008196;28;20185;-76
2023/08/08 10:40:20;;;;;;;3.97;1.83;;;30.00;1.00;;;;;;5003121;28;20174;-75
2023/08/08 10:42:46;;;;;;;4.65;1.60;;;30.20;1.00;;;;;;5007417;28;20269;-76
2023/08/08 10:45:14;;;;;;;3.20;1.63;;;30.50;1.00;;;;;;5005609;28;20174;-76
2023/08/08 10:47:40;;;;;;;3.90;1.90;;;30.50;1.00;;;;;;5004898;28;20206;-76
2023/08/08 10:50:14;;;;;;;4.00;1.95;;;30.00;1.00;;;;;;5006972;28;20252;-76
2023/08/08 10:52:54;;;;;;;3.30;1.70;;;31.00;1.00;;;;;;5007070;28;20788;-76
2023/08/08 10:55:25;;;;;;;4.97;1.90;;;31.60;1.00;;;;;;5004759;28;20181;-75
2023/08/08 10:58:06;;;;;;;3.42;1.73;;;31.00;1.00;;;;;;5004083;28;20555;-77
2023/08/08 11:00:34;;;;;;;4.43;1.90;;;30.50;1.00;;;;;;5005940;28;20260;-75
2023/08/08 11:03:01;;;;;;;4.95;1.50;;;30.30;1.00;;;;;;5003041;28;20199;-76
2023/08/08 11:05:30;;;;;;;3.28;1.63;;;29.80;1.00;;;;;;5007664;28;20212;-76
2023/08/08 11:07:56;;;;;;;2.80;1.70;;;29.50;1.00;;;;;;5008690;28;20229;-75
2023/08/08 11:10:30;;;;;;;7.50;1.88;;;29.80;1.00;;;;;;5002449;28;20244;-76
2023/08/08 11:13:00;;;;;;;4.60;1.83;;;30.00;1.00;;;;;;5006795;28;20434;-76
2023/08/08 11:15:27;;;;;;;3.83;2.00;;;29.80;1.00;;;;;;5007854;28;20621;-76
2023/08/08 11:17:54;;;;;;;4.03;2.00;;;29.80;1.00;;;;;;5008085;28;20209;-76
2023/08/08 11:20:20;;;;;;;3.30;1.60;;;29.90;1.00;;;;;;5007895;28;20701;-76
2023/08/08 11:22:53;;;;;;;3.70;1.60;;;29.70;1.00;;;;;;5008254;28;20206;-76
2023/08/08 11:25:19;;;;;;;7.50;1.90;;;28.60;1.00;;;;;;5009585;28;20190;-75
2023/08/08 11:27:52;;;;;;;3.30;1.80;;;29.10;1.00;;;;;;5010375;28;20288;-75
2023/08/08 11:30:18;;;;;;;3.80;1.80;;;29.40;1.00;;;;;;5008661;28;20783;-76
2023/08/08 11:32:44;;;;;;;3.73;1.63;;;28.90;1.00;;;;;;5010142;28;20198;-74
2023/08/08 11:35:10;;;;;;;3.37;1.73;;;28.60;1.00;;;;;;5006920;28;20223;-77
2023/08/08 11:37:36;;;;;;;3.07;1.60;;;29.20;1.00;;;;;;5007789;28;20548;-75
2023/08/08 11:40:05;;;;;;;3.20;1.77;;;29.10;1.00;;;;;;5007482;28;20185;-75
2023/08/08 11:42:31;;;;;;;3.40;1.47;;;29.30;1.00;;;;;;5002117;28;20205;-76
2023/08/08 11:44:57;;;;;;;3.60;1.50;;;29.10;1.00;;;;;;5006421;28;20188;-76
2023/08/08 11:47:25;;;;;;;3.10;1.70;;;28.80;1.00;;;;;;5004978;28;20240;-76
2023/08/08 11:49:52;;;;;;;3.63;1.60;;;28.40;1.00;;;;;;5005526;28;20592;-75
2023/08/08 11:52:22;;;;;;;4.10;1.70;;;28.30;1.00;;;;;;5004739;28;20545;-75
2023/08/08 11:54:52;;;;;;;2.80;1.50;;;28.60;1.00;;;;;;5006945;28;20182;-75
2023/08/08 11:57:17;;;;;;;3.20;1.73;;;29.00;1.00;;;;;;5005488;28;20613;-75
2023/08/08 11:59:43;;;;;;;3.00;1.90;;;29.60;1.00;;;;;;5007277;28;20268;-75
2023/08/08 12:02:10;;;;;;;3.87;1.70;;;29.70;1.00;;;;;;5003624;28;20309;-77
2023/08/08 12:04:35;;;;;;;4.03;1.90;;;29.70;1.00;;;;;;5006952;28;20556;-74
2023/08/08 12:07:03;;;;;;;3.50;1.67;;;29.80;1.00;;;;;;5007669;28;20198;-77
2023/08/08 12:09:32;;;;;;;4.03;2.13;;;30.00;1.00;;;;;;5008564;28;20185;-75
2023/08/08 12:12:00;;;;;;;3.92;1.70;;;30.10;1.00;;;;;;5010003;28;20218;-75
2023/08/08 12:14:25;;;;;;;3.25;1.70;;;30.40;1.00;;;;;;5010809;28;20181;-75
2023/08/08 12:16:51;;;;;;;3.22;1.60;;;30.90;1.00;;;;;;5011862;28;20181;-75
2023/08/08 12:19:21;;;;;;;3.13;1.52;;;31.80;1.00;;;;;;5010500;28;20218;-77
2023/08/08 12:21:46;;;;;;;2.60;1.50;;;31.80;1.00;;;;;;5003896;28;20232;-75
2023/08/08 12:24:12;;;;;;;3.70;1.80;;;32.10;1.00;;;;;;5004949;28;20656;-74
2023/08/08 12:26:37;;;;;;;2.80;1.60;;;32.30;1.00;;;;;;5008248;28;20700;-75
2023/08/08 12:29:03;;;;;;;2.88;1.50;;;32.90;1.00;;;;;;5008444;28;20719;-75
2023/08/08 12:31:29;;;;;;;2.92;1.52;;;32.50;1.00;;;;;;5005245;28;20288;-75
2023/08/08 12:33:54;;;;;;;5.13;1.88;;;32.30;1.00;;;;;;5006709;28;20260;-76
2023/08/08 12:36:20;;;;;;;3.60;1.70;;;32.10;1.00;;;;;;5009564;28;20724;-75
2023/08/08 12:38:46;;;;;;;2.83;1.40;;;31.70;1.00;;;;;;5008293;28;20190;-76
2023/08/08 12:41:12;;;;;;;3.00;1.60;;;31.90;1.00;;;;;;5007012;28;20611;-75
2023/08/08 12:43:38;;;;;;;2.50;1.40;;;31.10;1.00;;;;;;5011036;28;20229;-76
2023/08/08 12:46:04;;;;;;;3.53;1.58;;;31.60;1.00;;;;;;5009514;28;20181;-75
2023/08/08 12:48:29;;;;;;;3.65;1.70;;;31.60;1.00;;;;;;5008826;28;20256;-75
2023/08/08 12:50:55;;;;;;;4.28;1.60;;;30.60;1.00;;;;;;5011422;28;20237;-75
2023/08/08 12:53:20;;;;;;;3.03;1.70;;;30.60;1.00;;;;;;5010056;28;20262;-75